Time,TemperatureF,DewpointF,PressureIn,WindDirection,WindDirectionDegrees,WindSpeedMPH,WindSpeedGustMPH,Humidity,HourlyPrecipIn,Conditions,Clouds,dailyrainin,SoftwareType,DateUTC
2013-03-09 00:13:00,28.4,26.9,30.16,SSW,202,0.0,-999.0,94,-99.99,,,0.00,Acu-Link.com,2013-03-09 05:13:00,
2013-03-09 00:28:00,28.2,27.0,30.16,SSW,202,0.0,-999.0,95,-99.99,,,0.00,Acu-Link.com,2013-03-09 05:28:00,
2013-03-09 00:43:00,28.2,26.4,30.16,SSW,202,0.0,-999.0,93,-99.99,,,0.00,Acu-Link.com,2013-03-09 05:43:00,
2013-03-09 00:58:00,27.7,25.7,30.17,SSW,202,0.0,-999.0,92,-99.99,,,0.00,Acu-Link.com,2013-03-09 05:58:00,
2013-03-09 01:13:00,27.3,26.3,30.17,SSW,202,0.0,-999.0,96,-99.99,,,0.00,Acu-Link.com,2013-03-09 06:13:00,
2013-03-09 01:28:00,27.5,26.5,30.16,SSW,202,0.0,-999.0,96,-99.99,,,0.00,Acu-Link.com,2013-03-09 06:28:00,
2013-03-09 01:44:00,27.5,26.5,30.17,SSW,202,0.0,-999.0,96,-99.99,,,0.00,Acu-Link.com,2013-03-09 06:44:00,
2013-03-09 01:59:00,26.8,25.6,30.16,SSW,202,0.0,-999.0,95,-99.99,,,0.00,Acu-Link.com,2013-03-09 06:59:00,
2013-03-09 02:14:00,26.6,25.6,30.15,SSW,202,0.0,-999.0,96,-99.99,,,0.00,Acu-Link.com,2013-03-09 07:14:00,
2013-03-09 02:29:00,26.6,25.6,30.15,SSW,202,0.0,-999.0,96,-99.99,,,0.00,Acu-Link.com,2013-03-09 07:29:00,
2013-03-09 02:44:00,26.4,25.7,30.14,SSW,202,0.0,-999.0,97,-99.99,,,0.00,Acu-Link.com,2013-03-09 07:44:00,
2013-03-09 02:59:00,26.1,25.1,30.14,SSW,202,0.0,-999.0,96,-99.99,,,0.00,Acu-Link.com,2013-03-09 07:59:00,
2013-03-09 03:14:00,26.1,25.4,30.13,SSW,202,0.0,-999.0,97,-99.99,,,0.00,Acu-Link.com,2013-03-09 08:14:00,
2013-03-09 03:29:00,26.1,25.4,30.14,SSW,202,0.0,-999.0,97,-99.99,,,0.00,Acu-Link.com,2013-03-09 08:29:00,
2013-03-09 03:44:00,26.1,25.4,30.13,SSW,202,0.0,-999.0,97,-99.99,,,0.00,Acu-Link.com,2013-03-09 08:44:00,
2013-03-09 04:00:00,26.1,25.4,30.13,SSW,202,0.0,-999.0,97,-99.99,,,0.00,Acu-Link.com,2013-03-09 09:00:00,
2013-03-09 04:15:00,26.8,26.3,30.12,SSW,202,0.0,-999.0,98,-99.99,,,0.00,Acu-Link.com,2013-03-09 09:15:00,
2013-03-09 04:30:00,26.1,25.4,30.13,SSW,202,0.0,-999.0,97,-99.99,,,0.00,Acu-Link.com,2013-03-09 09:30:00,
2013-03-09 04:45:00,26.2,25.7,30.13,SSW,202,0.0,-999.0,98,-99.99,,,0.00,Acu-Link.com,2013-03-09 09:45:00,
2013-03-09 05:00:00,26.1,25.6,30.12,SSW,202,0.0,-999.0,98,-99.99,,,0.00,Acu-Link.com,2013-03-09 10:00:00,
2013-03-09 05:15:00,25.9,25.2,30.13,SSW,202,0.0,-999.0,97,-99.99,,,0.00,Acu-Link.com,2013-03-09 10:15:00,
2013-03-09 05:30:00,25.9,25.4,30.14,SSW,202,0.0,-999.0,98,-99.99,,,0.00,Acu-Link.com,2013-03-09 10:30:00,
2013-03-09 05:46:00,25.9,25.4,30.15,SSW,202,0.0,-999.0,98,-99.99,,,0.00,Acu-Link.com,2013-03-09 10:46:00,
2013-03-09 06:01:00,26.1,25.6,30.15,SSW,202,0.0,-999.0,98,-99.99,,,0.00,Acu-Link.com,2013-03-09 11:01:00,
2013-03-09 06:16:00,26.6,26.4,30.14,SSW,202,0.0,-999.0,99,-99.99,,,0.00,Acu-Link.com,2013-03-09 11:16:00,
2013-03-09 06:31:00,27.0,26.8,30.14,SSW,202,0.0,-999.0,99,-99.99,,,0.00,Acu-Link.com,2013-03-09 11:31:00,
2013-03-09 06:46:00,27.1,26.9,30.15,SSW,202,0.0,-999.0,99,-99.99,,,0.00,Acu-Link.com,2013-03-09 11:46:00,
2013-03-09 07:01:00,27.0,26.8,30.16,SSW,202,0.0,-999.0,99,-99.99,,,0.00,Acu-Link.com,2013-03-09 12:01:00,
2013-03-09 07:16:00,27.0,26.5,30.17,SSW,202,0.0,-999.0,98,-99.99,,,0.00,Acu-Link.com,2013-03-09 12:16:00,
2013-03-09 07:31:00,28.0,27.8,30.16,SSW,202,0.0,-999.0,99,-99.99,,,0.00,Acu-Link.com,2013-03-09 12:31:00,
2013-03-09 07:46:00,30.7,30.0,30.16,SSW,202,0.0,-999.0,97,-99.99,,,0.00,Acu-Link.com,2013-03-09 12:46:00,
2013-03-09 08:02:00,30.9,28.9,30.16,SSW,202,0.0,-999.0,92,-99.99,,,0.00,Acu-Link.com,2013-03-09 13:02:00,
2013-03-09 08:17:00,34.2,31.9,30.16,SSW,202,0.0,-999.0,91,-99.99,,,0.00,Acu-Link.com,2013-03-09 13:17:00,
2013-03-09 08:32:00,38.5,33.8,30.15,SSW,202,0.0,-999.0,83,-99.99,,,0.00,Acu-Link.com,2013-03-09 13:32:00,
2013-03-09 08:47:00,42.1,35.7,30.16,SSW,202,0.0,-999.0,78,-99.99,,,0.00,Acu-Link.com,2013-03-09 13:47:00,
2013-03-09 09:02:00,47.8,33.3,30.15,ESE,112,1.7,-999.0,57,-99.99,,,0.00,Acu-Link.com,2013-03-09 14:02:00,
2013-03-09 09:17:00,47.8,33.7,30.14,ENE,67,3.2,-999.0,58,-99.99,,,0.00,Acu-Link.com,2013-03-09 14:17:00,
2013-03-09 09:32:00,49.8,32.9,30.14,ESE,112,4.2,-999.0,52,-99.99,,,0.00,Acu-Link.com,2013-03-09 14:32:00,
2013-03-09 09:47:00,51.3,33.8,30.13,ESE,112,4.2,-999.0,51,-99.99,,,0.00,Acu-Link.com,2013-03-09 14:47:00,
2013-03-09 10:02:00,51.3,32.8,30.13,NW,315,3.2,-999.0,49,-99.99,,,0.00,Acu-Link.com,2013-03-09 15:02:00,
2013-03-09 10:18:00,54.1,32.7,30.12,ESE,112,1.7,-999.0,44,-99.99,,,0.00,Acu-Link.com,2013-03-09 15:18:00,
2013-03-09 10:33:00,55.0,34.6,30.12,SSE,157,2.2,-999.0,46,-99.99,,,0.00,Acu-Link.com,2013-03-09 15:33:00,
2013-03-09 10:48:00,58.1,33.3,30.10,South,180,1.7,-999.0,39,-99.99,,,0.00,Acu-Link.com,2013-03-09 15:48:00,
2013-03-09 11:03:00,60.3,33.9,30.10,North,0,2.2,-999.0,37,-99.99,,,0.00,Acu-Link.com,2013-03-09 16:03:00,
2013-03-09 11:18:00,61.0,34.5,30.11,SE,135,4.2,-999.0,37,-99.99,,,0.00,Acu-Link.com,2013-03-09 16:18:00,
2013-03-09 11:33:00,61.9,35.3,30.10,SSW,202,3.7,-999.0,37,-99.99,,,0.00,Acu-Link.com,2013-03-09 16:33:00,
2013-03-09 11:49:00,61.5,34.3,30.10,South,180,2.7,-999.0,36,-99.99,,,0.00,Acu-Link.com,2013-03-09 16:49:00,
2013-03-09 12:04:00,64.0,34.3,30.08,SSE,157,4.2,-999.0,33,-99.99,,,0.01,Acu-Link.com,2013-03-09 17:04:00,
2013-03-09 12:19:00,62.6,35.3,30.07,SE,135,3.7,-999.0,36,-99.99,,,0.01,Acu-Link.com,2013-03-09 17:19:00,
2013-03-09 12:34:00,65.8,34.3,30.06,NW,315,2.2,-999.0,31,-99.99,,,0.01,Acu-Link.com,2013-03-09 17:34:00,
2013-03-09 12:49:00,68.2,35.6,30.05,WNW,292,4.2,-999.0,30,-99.99,,,0.01,Acu-Link.com,2013-03-09 17:49:00,
2013-03-09 13:04:00,69.3,34.8,30.03,South,180,2.7,-999.0,28,-99.99,,,0.01,Acu-Link.com,2013-03-09 18:04:00,
2013-03-09 13:19:00,64.4,33.9,30.03,WSW,247,5.3,-999.0,32,-99.99,,,0.01,Acu-Link.com,2013-03-09 18:19:00,
2013-03-09 13:34:00,67.5,35.8,30.02,SW,225,4.7,-999.0,31,-99.99,,,0.01,Acu-Link.com,2013-03-09 18:34:00,
2013-03-09 13:49:00,68.4,34.0,30.00,ESE,112,0.0,-999.0,28,-99.99,,,0.01,Acu-Link.com,2013-03-09 18:49:00,
2013-03-09 14:05:00,68.0,34.6,30.00,SW,225,4.7,-999.0,29,-99.99,,,0.01,Acu-Link.com,2013-03-09 19:05:00,
2013-03-09 14:20:00,63.1,36.4,30.01,West,270,3.7,-999.0,37,-99.99,,,0.01,Acu-Link.com,2013-03-09 19:20:00,
2013-03-09 14:35:00,61.3,35.5,30.00,WNW,292,3.7,-999.0,38,-99.99,,,0.01,Acu-Link.com,2013-03-09 19:35:00,
2013-03-09 14:50:00,63.1,37.1,30.01,South,180,3.7,-999.0,38,-99.99,,,0.01,Acu-Link.com,2013-03-09 19:50:00,
2013-03-09 15:05:00,66.4,36.4,29.99,South,180,2.7,-999.0,33,-99.99,,,0.01,Acu-Link.com,2013-03-09 20:05:00,
2013-03-09 15:20:00,66.9,36.1,29.99,WSW,247,4.2,-999.0,32,-99.99,,,0.02,Acu-Link.com,2013-03-09 20:20:00,
2013-03-09 15:35:00,64.6,36.3,29.99,SW,225,2.2,-999.0,35,-99.99,,,0.02,Acu-Link.com,2013-03-09 20:35:00,
2013-03-09 15:50:00,63.5,36.1,29.99,WSW,247,2.7,-999.0,36,-99.99,,,0.02,Acu-Link.com,2013-03-09 20:50:00,
2013-03-09 16:05:00,61.3,35.5,30.00,WNW,292,2.7,-999.0,38,-99.99,,,0.02,Acu-Link.com,2013-03-09 21:05:00,
2013-03-09 16:21:00,60.1,35.7,30.00,West,270,3.7,-999.0,40,-99.99,,,0.02,Acu-Link.com,2013-03-09 21:21:00,
2013-03-09 16:36:00,59.4,35.7,30.01,West,270,3.2,-999.0,41,-99.99,,,0.02,Acu-Link.com,2013-03-09 21:36:00,
2013-03-09 16:51:00,58.3,36.5,30.01,SW,225,1.7,-999.0,44,-99.99,,,0.02,Acu-Link.com,2013-03-09 21:51:00,
2013-03-09 17:06:00,57.7,37.1,30.00,SW,225,0.0,-999.0,46,-99.99,,,0.02,Acu-Link.com,2013-03-09 22:06:00,
2013-03-09 17:21:00,57.4,36.2,30.00,WNW,292,0.0,-999.0,45,-99.99,,,0.02,Acu-Link.com,2013-03-09 22:21:00,
2013-03-09 17:36:00,57.2,37.7,29.99,NNW,337,0.0,-999.0,48,-99.99,,,0.02,Acu-Link.com,2013-03-09 22:36:00,
2013-03-09 17:51:00,57.0,38.5,30.01,West,270,0.0,-999.0,50,-99.99,,,0.03,Acu-Link.com,2013-03-09 22:51:00,
2013-03-09 18:06:00,56.3,40.3,30.00,ENE,67,0.0,-999.0,55,-99.99,,,0.03,Acu-Link.com,2013-03-09 23:06:00,
2013-03-09 18:21:00,55.6,40.2,29.99,WNW,292,1.7,-999.0,56,-99.99,,,0.04,Acu-Link.com,2013-03-09 23:21:00,
2013-03-09 18:37:00,54.1,37.8,30.00,WNW,292,0.0,-999.0,54,-99.99,,,0.04,Acu-Link.com,2013-03-09 23:37:00,
2013-03-09 18:52:00,52.2,37.9,30.00,WNW,292,0.0,-999.0,58,-99.99,,,0.04,Acu-Link.com,2013-03-09 23:52:00,
2013-03-09 19:07:00,50.0,38.7,30.00,WNW,292,0.0,-999.0,65,-99.99,,,0.04,Acu-Link.com,2013-03-10 00:07:00,
2013-03-09 19:22:00,48.2,38.5,30.00,WNW,292,1.1,-999.0,69,-99.99,,,0.04,Acu-Link.com,2013-03-10 00:22:00,
2013-03-09 19:37:00,47.5,37.1,30.01,WNW,292,0.0,-999.0,67,-99.99,,,0.04,Acu-Link.com,2013-03-10 00:37:00,
2013-03-09 19:52:00,46.2,37.3,30.01,WNW,292,0.0,-999.0,71,-99.99,,,0.04,Acu-Link.com,2013-03-10 00:52:00,
2013-03-09 20:07:00,45.5,37.0,30.01,WNW,292,0.0,-999.0,72,-99.99,,,0.04,Acu-Link.com,2013-03-10 01:07:00,
2013-03-09 20:22:00,44.4,37.0,30.02,West,270,0.0,-999.0,75,-99.99,,,0.04,Acu-Link.com,2013-03-10 01:22:00,
2013-03-09 20:37:00,43.5,36.4,30.01,West,270,0.0,-999.0,76,-99.99,,,0.04,Acu-Link.com,2013-03-10 01:37:00,
2013-03-09 21:08:00,42.3,36.6,30.02,West,270,0.0,-999.0,80,-99.99,,,0.04,Acu-Link.com,2013-03-10 02:08:00,
2013-03-09 21:23:00,41.9,37.1,30.02,West,270,0.0,-999.0,83,-99.99,,,0.04,Acu-Link.com,2013-03-10 02:23:00,
2013-03-09 21:38:00,41.2,36.4,30.02,West,270,0.0,-999.0,83,-99.99,,,0.04,Acu-Link.com,2013-03-10 02:38:00,
2013-03-09 21:53:00,41.0,36.2,30.02,West,270,0.0,-999.0,83,-99.99,,,0.04,Acu-Link.com,2013-03-10 02:53:00,
2013-03-09 22:08:00,40.8,36.3,30.02,West,270,0.0,-999.0,84,-99.99,,,0.04,Acu-Link.com,2013-03-10 03:08:00,
2013-03-09 22:23:00,40.6,36.7,30.02,West,270,0.0,-999.0,86,-99.99,,,0.04,Acu-Link.com,2013-03-10 03:23:00,
2013-03-09 22:39:00,40.6,36.5,30.02,West,270,0.0,-999.0,85,-99.99,,,0.04,Acu-Link.com,2013-03-10 03:39:00,
2013-03-09 22:54:00,40.6,37.0,30.01,West,270,0.0,-999.0,87,-99.99,,,0.04,Acu-Link.com,2013-03-10 03:54:00,
2013-03-09 23:09:00,40.3,36.5,30.02,West,270,0.0,-999.0,86,-99.99,,,0.04,Acu-Link.com,2013-03-10 04:09:00,
2013-03-09 23:24:00,39.9,36.1,30.01,West,270,0.0,-999.0,86,-99.99,,,0.04,Acu-Link.com,2013-03-10 04:24:00,
2013-03-09 23:39:00,39.0,35.8,30.01,West,270,0.0,-999.0,88,-99.99,,,0.04,Acu-Link.com,2013-03-10 04:39:00,
2013-03-09 23:54:00,38.5,35.3,30.01,West,270,0.0,-999.0,88,-99.99,,,0.04,Acu-Link.com,2013-03-10 04:54:00,